This is the latest recevied weather packets stored in our database for station/object DG2MCM-11. If no packets are shown the sender has not sent any weather packets the latest 10 day(s).
| Time | Temp. | Humidity | Pressure | Rain* | Wind** | Luminosity | Snow |
|---|---|---|---|---|---|---|---|
| 1777934307 | 10° C | 89% | 1013.8 hPa | 0 mm | - | - | - |
| 1777933706 | 10° C | 90% | 1013.8 hPa | 0 mm | - | - | - |
| 1777933104 | 10° C | 90% | 1013.8 hPa | 0 mm | - | - | - |
| 1777931900 | 10.56° C | 90% | 1013.7 hPa | 0 mm | - | - | - |
| 1777931298 | 10.56° C | 90% | 1013.7 hPa | 0 mm | - | - | - |
| 1777930697 | 10.56° C | 90% | 1013.7 hPa | 0 mm | - | - | - |
| 1777929494 | 11.11° C | 88% | 1013.5 hPa | 0 mm | - | - | - |
| 1777928892 | 11.67° C | 88% | 1013.4 hPa | 0 mm | - | - | - |
| 1777928290 | 11.67° C | 88% | 1013.5 hPa | 0 mm | - | - | - |
| 1777927087 | 12.22° C | 88% | 1013.3 hPa | 0 mm | - | - | - |
| 1777926485 | 12.22° C | 90% | 1013.2 hPa | 0 mm | - | - | - |
| 1777925883 | 12.22° C | 89% | 1013.1 hPa | 0 mm | - | - | - |
| 1777925281 | 12.78° C | 87% | 1012.9 hPa | 0 mm | - | - | - |
| 1777924679 | 13.33° C | 86% | 1012.8 hPa | 0 mm | - | - | - |
| 1777924077 | 13.33° C | 87% | 1012.9 hPa | 0 mm | - | - | - |
| 1777923475 | 13.89° C | 85% | 1012.8 hPa | 0 mm | - | - | - |
| 1777922873 | 13.89° C | 85% | 1012.7 hPa | 0 mm | - | - | - |
| 1777922271 | 13.89° C | 88% | 1013 hPa | 0 mm | - | - | - |
| 1777921669 | 13.89° C | 87% | 1013 hPa | 0 mm | - | - | - |
| 1777920526 | 15° C | 82% | 1012.6 hPa | 0 mm | - | - | - |
| 1777918721 | 15° C | 79% | 1012.6 hPa | 0 mm | - | - | - |
| 1777918120 | 15.56° C | 82% | 1012.4 hPa | 0 mm | - | - | - |
| 1777917518 | 15.56° C | 83% | 1012.3 hPa | 0 mm | - | - | - |
| 1777916315 | 15.56° C | 81% | 1012.2 hPa | 0 mm | - | - | - |
| 1777915111 | 16.67° C | 75% | 1012 hPa | 0 mm | - | - | - |
* Rain latest hour (hover to see other rain measurements)
** Current wind speed in m/s (hover to see current wind gust speed)